Aeroporto :







RITROVATECI SU...

 
LOGIN :

Iscrizione | Disclaimer

   EN    FR    IT 

 









Sommario :    VFR   VFR Marginale   IFR   IFR Intensivo   IFR Molto Intensivo
Visibilità : 
Base nubi : 
>= 8 km
>= 3000ft
5 / 8 km
1000 / 3000 ft
1500m / 5 km
500 / 1000 ft
800 / 1500m
200 / 500 ft
< 800m
< 200 ft
Simboli :   Temporali  Nebbia  Neve Forte  Precipitazioni Forti  Vento > 20 kt






- Altitudine del aeroporto : 342 ft


KCON - Concord Municipal

ULTIMO METAR :
  • 200351Z AUTO 08003KT 10SM CLR 02/M02 A3043 RMK AO2 SLP306 T00221022

METARs OBSOLETI :
  • 200251Z AUTO 00000KT 10SM CLR 04/M02 A3042 RMK AO2 SLP302 T00441022 51022
  • 200151Z AUTO 32005KT 10SM CLR 06/M03 A3040 RMK AO2 SLP295 T00611033

TAF KCON
Valido dal 20 a 00 ore il 21 a 00 ore UTC


192331Z 2000/2024 34004KT P6SM SKC
FM201500 02008G15KT P6SM SKC
FIR KZBW / America del Nord



MetMap, La meteo Aeronautica in un colpo d'occhio ! - Copyright ORBIFLY Dicembre 2007 - Disclaimer

ORBIFLY MET'MAP TEAM :

Programmazione e sviluppo : Alexandra Zaïnal
Concezione : Baudouin d'Aumeries
Aiuto per la programmazione : Marc-Olivier Méhu
Supporto tecnico e logistico : Manuel Goepfert
Aiuto per la traduzione : Arnaldo La Scala

Contatto : metmap@orbifly.com




FONTI E CREDITI :

   NOAA